sensor_id;sensor_type;location;lat;lon;timestamp;P1;durP1;ratioP1;P2;durP2;ratioP2
26600;SDS011;14241;49.260;10.496;2023-09-19T00:01:28;1.75;;;0.82;;
26600;SDS011;14241;49.260;10.496;2023-09-19T00:03:55;3.03;;;1.30;;
26600;SDS011;14241;49.260;10.496;2023-09-19T00:06:20;1.55;;;1.00;;
26600;SDS011;14241;49.260;10.496;2023-09-19T00:08:45;1.73;;;1.00;;
26600;SDS011;14241;49.260;10.496;2023-09-19T00:11:12;3.63;;;0.98;;
26600;SDS011;14241;49.260;10.496;2023-09-19T00:13:38;2.58;;;1.00;;
26600;SDS011;14241;49.260;10.496;2023-09-19T00:16:10;1.67;;;1.03;;
26600;SDS011;14241;49.260;10.496;2023-09-19T00:18:36;2.28;;;1.05;;
26600;SDS011;14241;49.260;10.496;2023-09-19T00:21:01;2.65;;;0.75;;
26600;SDS011;14241;49.260;10.496;2023-09-19T00:23:26;1.23;;;0.90;;
26600;SDS011;14241;49.260;10.496;2023-09-19T00:25:53;1.38;;;0.80;;
26600;SDS011;14241;49.260;10.496;2023-09-19T00:28:22;1.02;;;0.85;;
26600;SDS011;14241;49.260;10.496;2023-09-19T00:30:47;1.45;;;1.08;;
26600;SDS011;14241;49.260;10.496;2023-09-19T00:33:16;4.68;;;1.10;;
26600;SDS011;14241;49.260;10.496;2023-09-19T00:35:51;2.70;;;1.10;;
26600;SDS011;14241;49.260;10.496;2023-09-19T00:38:16;1.48;;;0.70;;
26600;SDS011;14241;49.260;10.496;2023-09-19T00:40:46;3.08;;;1.13;;
26600;SDS011;14241;49.260;10.496;2023-09-19T00:43:12;1.15;;;0.90;;
26600;SDS011;14241;49.260;10.496;2023-09-19T00:45:37;1.60;;;0.83;;
26600;SDS011;14241;49.260;10.496;2023-09-19T00:48:07;1.17;;;0.90;;
26600;SDS011;14241;49.260;10.496;2023-09-19T00:50:34;2.40;;;0.98;;
26600;SDS011;14241;49.260;10.496;2023-09-19T00:52:59;1.52;;;0.90;;
26600;SDS011;14241;49.260;10.496;2023-09-19T00:55:25;2.45;;;0.90;;
26600;SDS011;14241;49.260;10.496;2023-09-19T00:57:50;5.10;;;1.10;;
26600;SDS011;14241;49.260;10.496;2023-09-19T01:00:16;1.13;;;0.83;;
26600;SDS011;14241;49.260;10.496;2023-09-19T01:02:44;1.67;;;0.95;;
26600;SDS011;14241;49.260;10.496;2023-09-19T01:05:09;1.30;;;1.00;;
26600;SDS011;14241;49.260;10.496;2023-09-19T01:07:35;1.83;;;1.10;;
26600;SDS011;14241;49.260;10.496;2023-09-19T01:10:00;1.90;;;0.95;;
26600;SDS011;14241;49.260;10.496;2023-09-19T01:12:33;3.72;;;0.77;;
26600;SDS011;14241;49.260;10.496;2023-09-19T01:15:02;2.67;;;1.05;;
26600;SDS011;14241;49.260;10.496;2023-09-19T01:17:31;1.30;;;0.80;;
26600;SDS011;14241;49.260;10.496;2023-09-19T01:25:26;2.60;;;0.82;;
26600;SDS011;14241;49.260;10.496;2023-09-19T01:30:42;3.45;;;1.13;;
26600;SDS011;14241;49.260;10.496;2023-09-19T01:33:08;1.83;;;0.90;;
26600;SDS011;14241;49.260;10.496;2023-09-19T01:35:35;1.77;;;0.98;;
26600;SDS011;14241;49.260;10.496;2023-09-19T01:38:04;3.53;;;1.08;;
26600;SDS011;14241;49.260;10.496;2023-09-19T01:40:29;1.75;;;1.20;;
26600;SDS011;14241;49.260;10.496;2023-09-19T01:42:58;1.50;;;0.95;;
26600;SDS011;14241;49.260;10.496;2023-09-19T01:48:09;2.58;;;0.98;;
26600;SDS011;14241;49.260;10.496;2023-09-19T01:51:23;1.85;;;0.90;;
26600;SDS011;14241;49.260;10.496;2023-09-19T01:53:23;2.33;;;1.00;;
26600;SDS011;14241;49.260;10.496;2023-09-19T01:55:49;3.53;;;0.90;;
26600;SDS011;14241;49.260;10.496;2023-09-19T01:58:18;2.58;;;1.10;;
26600;SDS011;14241;49.260;10.496;2023-09-19T02:00:46;2.38;;;1.20;;
26600;SDS011;14241;49.260;10.496;2023-09-19T02:03:13;1.67;;;1.00;;
26600;SDS011;14241;49.260;10.496;2023-09-19T02:05:38;1.63;;;1.00;;
26600;SDS011;14241;49.260;10.496;2023-09-19T02:08:04;1.73;;;1.10;;
26600;SDS011;14241;49.260;10.496;2023-09-19T02:10:30;2.22;;;1.10;;
26600;SDS011;14241;49.260;10.496;2023-09-19T02:12:55;2.10;;;0.80;;
26600;SDS011;14241;49.260;10.496;2023-09-19T02:15:21;2.10;;;1.20;;
26600;SDS011;14241;49.260;10.496;2023-09-19T02:17:47;2.10;;;1.10;;
26600;SDS011;14241;49.260;10.496;2023-09-19T02:20:12;3.30;;;1.30;;
26600;SDS011;14241;49.260;10.496;2023-09-19T02:22:43;4.93;;;1.50;;
26600;SDS011;14241;49.260;10.496;2023-09-19T02:25:09;5.57;;;1.15;;
26600;SDS011;14241;49.260;10.496;2023-09-19T02:27:34;1.83;;;1.13;;
26600;SDS011;14241;49.260;10.496;2023-09-19T02:29:59;1.98;;;1.10;;
26600;SDS011;14241;49.260;10.496;2023-09-19T02:32:28;2.13;;;1.10;;
26600;SDS011;14241;49.260;10.496;2023-09-19T02:34:55;1.92;;;0.90;;
26600;SDS011;14241;49.260;10.496;2023-09-19T02:37:21;2.42;;;1.08;;
26600;SDS011;14241;49.260;10.496;2023-09-19T02:39:46;6.18;;;1.52;;
26600;SDS011;14241;49.260;10.496;2023-09-19T02:42:11;2.40;;;1.10;;
26600;SDS011;14241;49.260;10.496;2023-09-19T02:44:36;3.40;;;1.03;;
26600;SDS011;14241;49.260;10.496;2023-09-19T02:47:03;1.75;;;1.13;;
26600;SDS011;14241;49.260;10.496;2023-09-19T02:49:28;4.47;;;1.33;;
26600;SDS011;14241;49.260;10.496;2023-09-19T02:51:53;3.85;;;1.10;;
26600;SDS011;14241;49.260;10.496;2023-09-19T02:54:19;3.13;;;1.00;;
26600;SDS011;14241;49.260;10.496;2023-09-19T02:56:45;3.38;;;1.20;;
26600;SDS011;14241;49.260;10.496;2023-09-19T02:59:10;3.55;;;1.30;;
26600;SDS011;14241;49.260;10.496;2023-09-19T03:01:36;2.17;;;1.20;;
26600;SDS011;14241;49.260;10.496;2023-09-19T03:04:02;1.92;;;1.20;;
26600;SDS011;14241;49.260;10.496;2023-09-19T03:06:28;4.05;;;1.23;;
26600;SDS011;14241;49.260;10.496;2023-09-19T03:08:56;2.45;;;1.13;;
26600;SDS011;14241;49.260;10.496;2023-09-19T03:11:21;2.75;;;1.20;;
26600;SDS011;14241;49.260;10.496;2023-09-19T03:13:51;2.90;;;1.30;;
26600;SDS011;14241;49.260;10.496;2023-09-19T03:16:17;3.92;;;1.15;;
26600;SDS011;14241;49.260;10.496;2023-09-19T03:18:42;2.73;;;1.30;;
26600;SDS011;14241;49.260;10.496;2023-09-19T03:21:07;2.83;;;1.30;;
26600;SDS011;14241;49.260;10.496;2023-09-19T03:23:32;2.33;;;1.20;;
26600;SDS011;14241;49.260;10.496;2023-09-19T03:25:58;1.48;;;0.88;;
26600;SDS011;14241;49.260;10.496;2023-09-19T03:28:24;3.97;;;1.45;;
26600;SDS011;14241;49.260;10.496;2023-09-19T03:33:44;2.80;;;1.30;;
26600;SDS011;14241;49.260;10.496;2023-09-19T03:36:09;2.37;;;0.93;;
26600;SDS011;14241;49.260;10.496;2023-09-19T03:38:34;2.07;;;1.20;;
26600;SDS011;14241;49.260;10.496;2023-09-19T03:41:00;3.55;;;1.20;;
26600;SDS011;14241;49.260;10.496;2023-09-19T03:43:26;1.77;;;1.30;;
26600;SDS011;14241;49.260;10.496;2023-09-19T03:45:51;2.55;;;0.88;;
26600;SDS011;14241;49.260;10.496;2023-09-19T03:48:19;2.25;;;1.50;;
26600;SDS011;14241;49.260;10.496;2023-09-19T03:50:44;2.88;;;1.60;;
26600;SDS011;14241;49.260;10.496;2023-09-19T03:53:10;4.17;;;1.30;;
26600;SDS011;14241;49.260;10.496;2023-09-19T03:55:35;2.77;;;1.30;;
26600;SDS011;14241;49.260;10.496;2023-09-19T03:58:00;3.83;;;1.30;;
26600;SDS011;14241;49.260;10.496;2023-09-19T04:00:26;2.20;;;1.27;;
26600;SDS011;14241;49.260;10.496;2023-09-19T04:02:51;2.47;;;1.30;;
26600;SDS011;14241;49.260;10.496;2023-09-19T04:05:17;2.20;;;1.27;;
26600;SDS011;14241;49.260;10.496;2023-09-19T04:07:42;4.53;;;1.27;;
26600;SDS011;14241;49.260;10.496;2023-09-19T04:10:07;2.43;;;1.50;;
26600;SDS011;14241;49.260;10.496;2023-09-19T04:12:35;3.72;;;1.20;;
26600;SDS011;14241;49.260;10.496;2023-09-19T04:15:00;4.40;;;1.73;;
26600;SDS011;14241;49.260;10.496;2023-09-19T04:17:25;3.15;;;1.40;;
26600;SDS011;14241;49.260;10.496;2023-09-19T04:19:50;1.95;;;1.30;;
26600;SDS011;14241;49.260;10.496;2023-09-19T04:22:16;1.60;;;1.00;;
26600;SDS011;14241;49.260;10.496;2023-09-19T04:24:41;2.20;;;1.13;;
26600;SDS011;14241;49.260;10.496;2023-09-19T04:27:06;3.37;;;1.30;;
26600;SDS011;14241;49.260;10.496;2023-09-19T04:29:32;2.75;;;1.15;;
26600;SDS011;14241;49.260;10.496;2023-09-19T04:31:57;1.95;;;1.20;;
26600;SDS011;14241;49.260;10.496;2023-09-19T04:34:23;1.90;;;1.37;;
26600;SDS011;14241;49.260;10.496;2023-09-19T04:36:49;2.20;;;1.20;;
26600;SDS011;14241;49.260;10.496;2023-09-19T04:39:14;1.80;;;1.00;;
26600;SDS011;14241;49.260;10.496;2023-09-19T04:41:39;2.80;;;1.13;;
26600;SDS011;14241;49.260;10.496;2023-09-19T04:44:06;2.58;;;1.10;;
26600;SDS011;14241;49.260;10.496;2023-09-19T04:46:31;1.27;;;1.03;;
26600;SDS011;14241;49.260;10.496;2023-09-19T04:48:56;2.63;;;1.23;;
26600;SDS011;14241;49.260;10.496;2023-09-19T04:51:22;1.92;;;1.20;;
26600;SDS011;14241;49.260;10.496;2023-09-19T04:53:48;2.33;;;1.27;;
26600;SDS011;14241;49.260;10.496;2023-09-19T04:56:14;2.55;;;1.20;;
26600;SDS011;14241;49.260;10.496;2023-09-19T04:58:40;4.35;;;1.52;;
26600;SDS011;14241;49.260;10.496;2023-09-19T05:01:05;2.77;;;1.27;;
26600;SDS011;14241;49.260;10.496;2023-09-19T05:03:30;2.38;;;1.27;;
26600;SDS011;14241;49.260;10.496;2023-09-19T05:05:56;2.60;;;1.23;;
26600;SDS011;14241;49.260;10.496;2023-09-19T05:08:21;4.73;;;1.30;;
26600;SDS011;14241;49.260;10.496;2023-09-19T05:10:47;2.20;;;1.30;;
26600;SDS011;14241;49.260;10.496;2023-09-19T05:13:12;4.85;;;1.40;;
26600;SDS011;14241;49.260;10.496;2023-09-19T05:15:37;3.70;;;1.23;;
26600;SDS011;14241;49.260;10.496;2023-09-19T05:18:04;2.58;;;1.55;;
26600;SDS011;14241;49.260;10.496;2023-09-19T05:20:30;2.00;;;1.30;;
26600;SDS011;14241;49.260;10.496;2023-09-19T05:22:58;2.15;;;1.50;;
26600;SDS011;14241;49.260;10.496;2023-09-19T05:25:26;2.65;;;1.30;;
26600;SDS011;14241;49.260;10.496;2023-09-19T05:27:54;3.42;;;1.30;;
26600;SDS011;14241;49.260;10.496;2023-09-19T05:30:19;2.92;;;1.27;;
26600;SDS011;14241;49.260;10.496;2023-09-19T05:32:45;3.93;;;1.43;;
26600;SDS011;14241;49.260;10.496;2023-09-19T05:35:10;2.73;;;1.40;;
26600;SDS011;14241;49.260;10.496;2023-09-19T05:37:37;1.70;;;1.30;;
26600;SDS011;14241;49.260;10.496;2023-09-19T05:40:03;1.17;;;1.00;;
26600;SDS011;14241;49.260;10.496;2023-09-19T05:42:32;2.08;;;1.60;;
26600;SDS011;14241;49.260;10.496;2023-09-19T05:44:57;2.60;;;1.42;;
26600;SDS011;14241;49.260;10.496;2023-09-19T05:47:23;2.63;;;1.52;;
26600;SDS011;14241;49.260;10.496;2023-09-19T05:49:50;2.25;;;1.23;;
26600;SDS011;14241;49.260;10.496;2023-09-19T05:52:15;1.65;;;1.20;;
26600;SDS011;14241;49.260;10.496;2023-09-19T05:54:42;1.70;;;1.13;;
26600;SDS011;14241;49.260;10.496;2023-09-19T05:57:08;2.75;;;1.35;;
26600;SDS011;14241;49.260;10.496;2023-09-19T05:59:33;1.97;;;1.30;;
26600;SDS011;14241;49.260;10.496;2023-09-19T06:01:59;2.25;;;1.30;;
26600;SDS011;14241;49.260;10.496;2023-09-19T06:04:24;1.60;;;1.33;;
26600;SDS011;14241;49.260;10.496;2023-09-19T06:06:50;2.95;;;1.50;;
26600;SDS011;14241;49.260;10.496;2023-09-19T06:09:16;4.82;;;1.40;;
26600;SDS011;14241;49.260;10.496;2023-09-19T06:11:41;6.55;;;1.42;;
26600;SDS011;14241;49.260;10.496;2023-09-19T06:14:07;2.30;;;1.25;;
26600;SDS011;14241;49.260;10.496;2023-09-19T06:16:32;4.23;;;1.50;;
26600;SDS011;14241;49.260;10.496;2023-09-19T06:18:57;3.10;;;1.77;;
26600;SDS011;14241;49.260;10.496;2023-09-19T06:21:23;2.58;;;1.70;;
26600;SDS011;14241;49.260;10.496;2023-09-19T06:23:49;1.67;;;1.48;;
26600;SDS011;14241;49.260;10.496;2023-09-19T06:26:14;2.20;;;1.77;;
26600;SDS011;14241;49.260;10.496;2023-09-19T06:28:39;3.13;;;1.90;;
26600;SDS011;14241;49.260;10.496;2023-09-19T06:31:04;2.72;;;1.70;;
26600;SDS011;14241;49.260;10.496;2023-09-19T06:33:34;3.38;;;1.50;;
26600;SDS011;14241;49.260;10.496;2023-09-19T06:36:00;3.08;;;1.50;;
26600;SDS011;14241;49.260;10.496;2023-09-19T06:38:25;3.88;;;1.63;;
26600;SDS011;14241;49.260;10.496;2023-09-19T06:40:50;5.47;;;1.80;;
26600;SDS011;14241;49.260;10.496;2023-09-19T06:43:15;1.97;;;1.30;;
26600;SDS011;14241;49.260;10.496;2023-09-19T06:45:41;1.50;;;1.40;;
26600;SDS011;14241;49.260;10.496;2023-09-19T06:48:07;3.35;;;1.65;;
26600;SDS011;14241;49.260;10.496;2023-09-19T06:50:34;7.35;;;1.80;;
26600;SDS011;14241;49.260;10.496;2023-09-19T06:52:59;3.13;;;1.63;;
26600;SDS011;14241;49.260;10.496;2023-09-19T06:55:25;4.40;;;1.75;;
26600;SDS011;14241;49.260;10.496;2023-09-19T06:57:52;2.33;;;1.38;;
26600;SDS011;14241;49.260;10.496;2023-09-19T07:00:19;6.35;;;1.67;;
26600;SDS011;14241;49.260;10.496;2023-09-19T07:05:26;2.35;;;1.13;;
26600;SDS011;14241;49.260;10.496;2023-09-19T07:07:52;3.13;;;1.70;;
26600;SDS011;14241;49.260;10.496;2023-09-19T07:10:19;3.97;;;1.83;;
26600;SDS011;14241;49.260;10.496;2023-09-19T07:12:45;5.70;;;1.75;;
26600;SDS011;14241;49.260;10.496;2023-09-19T07:15:10;2.83;;;1.27;;
26600;SDS011;14241;49.260;10.496;2023-09-19T07:17:35;2.90;;;1.80;;
26600;SDS011;14241;49.260;10.496;2023-09-19T07:20:01;4.10;;;1.50;;
26600;SDS011;14241;49.260;10.496;2023-09-19T07:22:33;6.30;;;1.70;;
26600;SDS011;14241;49.260;10.496;2023-09-19T07:24:58;3.95;;;1.48;;
26600;SDS011;14241;49.260;10.496;2023-09-19T07:27:24;3.67;;;1.60;;
26600;SDS011;14241;49.260;10.496;2023-09-19T07:29:49;2.30;;;1.60;;
26600;SDS011;14241;49.260;10.496;2023-09-19T07:32:15;2.42;;;1.90;;
26600;SDS011;14241;49.260;10.496;2023-09-19T07:34:42;3.08;;;1.80;;
26600;SDS011;14241;49.260;10.496;2023-09-19T07:37:09;3.55;;;1.48;;
26600;SDS011;14241;49.260;10.496;2023-09-19T07:39:34;2.13;;;1.53;;
26600;SDS011;14241;49.260;10.496;2023-09-19T07:41:59;5.33;;;1.70;;
26600;SDS011;14241;49.260;10.496;2023-09-19T07:44:25;4.10;;;1.87;;
26600;SDS011;14241;49.260;10.496;2023-09-19T07:46:50;5.15;;;1.75;;
26600;SDS011;14241;49.260;10.496;2023-09-19T07:49:17;4.35;;;1.80;;
26600;SDS011;14241;49.260;10.496;2023-09-19T07:51:42;2.85;;;1.20;;
26600;SDS011;14241;49.260;10.496;2023-09-19T07:54:11;4.75;;;1.58;;
26600;SDS011;14241;49.260;10.496;2023-09-19T07:56:36;5.28;;;1.48;;
26600;SDS011;14241;49.260;10.496;2023-09-19T07:59:02;4.38;;;1.38;;
26600;SDS011;14241;49.260;10.496;2023-09-19T08:01:27;5.50;;;1.43;;
26600;SDS011;14241;49.260;10.496;2023-09-19T08:03:52;5.57;;;2.03;;
26600;SDS011;14241;49.260;10.496;2023-09-19T08:06:18;3.80;;;1.40;;
26600;SDS011;14241;49.260;10.496;2023-09-19T08:08:45;1.65;;;1.30;;
26600;SDS011;14241;49.260;10.496;2023-09-19T08:11:10;4.33;;;1.60;;
26600;SDS011;14241;49.260;10.496;2023-09-19T08:13:37;4.38;;;1.50;;
26600;SDS011;14241;49.260;10.496;2023-09-19T08:16:06;7.15;;;1.90;;
26600;SDS011;14241;49.260;10.496;2023-09-19T08:18:31;4.67;;;1.63;;
26600;SDS011;14241;49.260;10.496;2023-09-19T08:20:56;1.80;;;1.20;;
26600;SDS011;14241;49.260;10.496;2023-09-19T08:23:23;3.13;;;1.50;;
26600;SDS011;14241;49.260;10.496;2023-09-19T08:25:48;2.05;;;1.02;;
26600;SDS011;14241;49.260;10.496;2023-09-19T08:28:14;4.13;;;1.73;;
26600;SDS011;14241;49.260;10.496;2023-09-19T08:30:45;5.35;;;1.65;;
26600;SDS011;14241;49.260;10.496;2023-09-19T08:33:10;2.78;;;1.30;;
26600;SDS011;14241;49.260;10.496;2023-09-19T08:35:36;3.38;;;1.52;;
26600;SDS011;14241;49.260;10.496;2023-09-19T08:38:03;2.70;;;1.30;;
26600;SDS011;14241;49.260;10.496;2023-09-19T08:40:32;2.63;;;1.27;;
26600;SDS011;14241;49.260;10.496;2023-09-19T08:42:58;3.58;;;1.20;;
26600;SDS011;14241;49.260;10.496;2023-09-19T08:45:24;8.60;;;1.70;;
26600;SDS011;14241;49.260;10.496;2023-09-19T08:53:15;3.55;;;1.42;;
26600;SDS011;14241;49.260;10.496;2023-09-19T08:55:40;3.22;;;1.70;;
26600;SDS011;14241;49.260;10.496;2023-09-19T08:58:08;2.28;;;1.17;;
26600;SDS011;14241;49.260;10.496;2023-09-19T09:00:35;2.55;;;1.20;;
26600;SDS011;14241;49.260;10.496;2023-09-19T09:03:01;2.85;;;1.48;;
26600;SDS011;14241;49.260;10.496;2023-09-19T09:05:27;2.47;;;1.27;;
26600;SDS011;14241;49.260;10.496;2023-09-19T09:07:53;1.80;;;1.08;;
26600;SDS011;14241;49.260;10.496;2023-09-19T09:10:21;2.15;;;1.02;;
26600;SDS011;14241;49.260;10.496;2023-09-19T09:12:51;6.28;;;1.30;;
26600;SDS011;14241;49.260;10.496;2023-09-19T09:15:17;2.22;;;1.08;;
26600;SDS011;14241;49.260;10.496;2023-09-19T09:17:46;1.83;;;1.00;;
26600;SDS011;14241;49.260;10.496;2023-09-19T09:20:11;1.60;;;1.10;;
26600;SDS011;14241;49.260;10.496;2023-09-19T09:22:37;4.68;;;1.25;;
26600;SDS011;14241;49.260;10.496;2023-09-19T09:25:05;1.17;;;1.00;;
26600;SDS011;14241;49.260;10.496;2023-09-19T09:27:30;3.85;;;1.20;;
26600;SDS011;14241;49.260;10.496;2023-09-19T09:29:57;1.58;;;1.05;;
26600;SDS011;14241;49.260;10.496;2023-09-19T09:32:26;2.43;;;1.17;;
26600;SDS011;14241;49.260;10.496;2023-09-19T09:34:57;1.55;;;1.00;;
26600;SDS011;14241;49.260;10.496;2023-09-19T09:37:24;1.88;;;1.05;;
26600;SDS011;14241;49.260;10.496;2023-09-19T09:39:53;1.63;;;0.85;;
26600;SDS011;14241;49.260;10.496;2023-09-19T09:42:54;2.85;;;0.95;;
26600;SDS011;14241;49.260;10.496;2023-09-19T09:45:15;3.13;;;1.10;;
26600;SDS011;14241;49.260;10.496;2023-09-19T09:47:45;1.95;;;1.05;;
26600;SDS011;14241;49.260;10.496;2023-09-19T09:50:22;1.75;;;1.00;;
26600;SDS011;14241;49.260;10.496;2023-09-19T09:52:54;3.28;;;1.25;;
26600;SDS011;14241;49.260;10.496;2023-09-19T09:55:20;2.20;;;1.10;;
26600;SDS011;14241;49.260;10.496;2023-09-19T09:57:45;4.17;;;1.10;;
26600;SDS011;14241;49.260;10.496;2023-09-19T10:00:11;3.90;;;1.20;;
26600;SDS011;14241;49.260;10.496;2023-09-19T10:02:36;4.10;;;1.20;;
26600;SDS011;14241;49.260;10.496;2023-09-19T10:05:17;2.83;;;1.33;;
26600;SDS011;14241;49.260;10.496;2023-09-19T10:08:12;2.05;;;0.90;;
26600;SDS011;14241;49.260;10.496;2023-09-19T10:10:38;2.08;;;0.80;;
26600;SDS011;14241;49.260;10.496;2023-09-19T10:13:05;2.03;;;0.95;;
26600;SDS011;14241;49.260;10.496;2023-09-19T10:15:31;3.83;;;1.00;;
26600;SDS011;14241;49.260;10.496;2023-09-19T10:17:57;4.70;;;1.30;;
26600;SDS011;14241;49.260;10.496;2023-09-19T10:20:24;3.00;;;1.05;;
26600;SDS011;14241;49.260;10.496;2023-09-19T10:23:03;3.42;;;1.15;;
26600;SDS011;14241;49.260;10.496;2023-09-19T10:25:34;3.42;;;1.17;;
26600;SDS011;14241;49.260;10.496;2023-09-19T10:28:02;1.50;;;1.05;;
26600;SDS011;14241;49.260;10.496;2023-09-19T10:30:35;4.25;;;1.30;;
26600;SDS011;14241;49.260;10.496;2023-09-19T10:33:02;3.72;;;1.25;;
26600;SDS011;14241;49.260;10.496;2023-09-19T10:35:28;1.75;;;1.08;;
26600;SDS011;14241;49.260;10.496;2023-09-19T10:37:57;2.35;;;0.90;;
26600;SDS011;14241;49.260;10.496;2023-09-19T10:40:23;3.03;;;1.15;;
26600;SDS011;14241;49.260;10.496;2023-09-19T10:42:55;3.92;;;1.08;;
26600;SDS011;14241;49.260;10.496;2023-09-19T10:45:24;2.95;;;1.08;;
26600;SDS011;14241;49.260;10.496;2023-09-19T10:47:51;2.22;;;1.10;;
26600;SDS011;14241;49.260;10.496;2023-09-19T10:50:20;2.35;;;0.80;;
26600;SDS011;14241;49.260;10.496;2023-09-19T10:52:46;3.38;;;0.90;;
26600;SDS011;14241;49.260;10.496;2023-09-19T10:55:16;2.78;;;0.95;;
26600;SDS011;14241;49.260;10.496;2023-09-19T10:57:44;3.58;;;0.82;;
26600;SDS011;14241;49.260;10.496;2023-09-19T11:00:09;4.05;;;1.00;;
26600;SDS011;14241;49.260;10.496;2023-09-19T11:05:37;3.65;;;0.93;;
26600;SDS011;14241;49.260;10.496;2023-09-19T11:08:06;2.85;;;0.75;;
26600;SDS011;14241;49.260;10.496;2023-09-19T11:10:44;6.53;;;1.35;;
26600;SDS011;14241;49.260;10.496;2023-09-19T11:13:27;5.82;;;1.13;;
26600;SDS011;14241;49.260;10.496;2023-09-19T11:24:13;3.92;;;1.20;;
26600;SDS011;14241;49.260;10.496;2023-09-19T11:26:44;5.45;;;1.55;;
26600;SDS011;14241;49.260;10.496;2023-09-19T11:29:28;3.20;;;1.20;;
26600;SDS011;14241;49.260;10.496;2023-09-19T11:31:54;2.92;;;0.75;;
26600;SDS011;14241;49.260;10.496;2023-09-19T11:37:01;2.58;;;0.90;;
26600;SDS011;14241;49.260;10.496;2023-09-19T11:39:29;3.17;;;1.20;;
26600;SDS011;14241;49.260;10.496;2023-09-19T11:41:54;3.00;;;1.15;;
26600;SDS011;14241;49.260;10.496;2023-09-19T11:44:31;4.50;;;1.05;;
26600;SDS011;14241;49.260;10.496;2023-09-19T11:46:58;4.65;;;1.45;;
26600;SDS011;14241;49.260;10.496;2023-09-19T11:49:31;3.72;;;1.05;;
26600;SDS011;14241;49.260;10.496;2023-09-19T11:51:57;3.63;;;1.38;;
26600;SDS011;14241;49.260;10.496;2023-09-19T11:54:22;1.55;;;1.00;;
26600;SDS011;14241;49.260;10.496;2023-09-19T11:56:49;2.25;;;1.02;;
26600;SDS011;14241;49.260;10.496;2023-09-19T11:59:21;2.45;;;1.00;;
26600;SDS011;14241;49.260;10.496;2023-09-19T12:01:51;2.88;;;1.00;;
26600;SDS011;14241;49.260;10.496;2023-09-19T12:04:22;2.00;;;1.00;;
26600;SDS011;14241;49.260;10.496;2023-09-19T12:09:23;5.87;;;1.30;;
26600;SDS011;14241;49.260;10.496;2023-09-19T12:11:50;3.05;;;1.15;;
26600;SDS011;14241;49.260;10.496;2023-09-19T12:14:21;3.15;;;1.30;;
26600;SDS011;14241;49.260;10.496;2023-09-19T12:16:53;2.00;;;0.93;;
26600;SDS011;14241;49.260;10.496;2023-09-19T12:19:20;3.58;;;1.30;;
26600;SDS011;14241;49.260;10.496;2023-09-19T12:21:54;2.55;;;1.00;;
26600;SDS011;14241;49.260;10.496;2023-09-19T12:24:19;4.25;;;1.05;;
26600;SDS011;14241;49.260;10.496;2023-09-19T12:26:45;2.63;;;1.35;;
26600;SDS011;14241;49.260;10.496;2023-09-19T12:29:13;2.33;;;1.02;;
26600;SDS011;14241;49.260;10.496;2023-09-19T12:34:35;3.05;;;1.30;;
26600;SDS011;14241;49.260;10.496;2023-09-19T12:39:31;4.18;;;1.15;;
26600;SDS011;14241;49.260;10.496;2023-09-19T12:41:56;4.50;;;1.10;;
26600;SDS011;14241;49.260;10.496;2023-09-19T12:44:21;3.00;;;1.08;;
26600;SDS011;14241;49.260;10.496;2023-09-19T12:46:50;5.05;;;1.40;;
26600;SDS011;14241;49.260;10.496;2023-09-19T12:49:15;4.47;;;1.58;;
26600;SDS011;14241;49.260;10.496;2023-09-19T12:51:42;4.60;;;1.25;;
26600;SDS011;14241;49.260;10.496;2023-09-19T12:54:08;3.08;;;0.80;;
26600;SDS011;14241;49.260;10.496;2023-09-19T12:56:42;3.45;;;1.00;;
26600;SDS011;14241;49.260;10.496;2023-09-19T12:59:12;3.55;;;1.20;;
26600;SDS011;14241;49.260;10.496;2023-09-19T13:01:41;2.67;;;1.08;;
26600;SDS011;14241;49.260;10.496;2023-09-19T13:04:17;2.72;;;1.17;;
26600;SDS011;14241;49.260;10.496;2023-09-19T13:06:47;3.28;;;1.13;;
26600;SDS011;14241;49.260;10.496;2023-09-19T13:09:14;1.80;;;0.90;;
26600;SDS011;14241;49.260;10.496;2023-09-19T13:11:39;3.35;;;1.08;;
26600;SDS011;14241;49.260;10.496;2023-09-19T13:16:54;2.85;;;1.10;;
26600;SDS011;14241;49.260;10.496;2023-09-19T13:19:43;2.67;;;0.93;;
26600;SDS011;14241;49.260;10.496;2023-09-19T13:24:57;1.40;;;0.90;;
26600;SDS011;14241;49.260;10.496;2023-09-19T13:27:23;4.30;;;1.10;;
26600;SDS011;14241;49.260;10.496;2023-09-19T13:29:49;2.37;;;1.10;;
26600;SDS011;14241;49.260;10.496;2023-09-19T13:32:14;3.33;;;1.20;;
26600;SDS011;14241;49.260;10.496;2023-09-19T13:34:39;4.30;;;1.13;;
26600;SDS011;14241;49.260;10.496;2023-09-19T13:37:04;3.13;;;1.20;;
26600;SDS011;14241;49.260;10.496;2023-09-19T13:39:29;3.77;;;1.10;;
26600;SDS011;14241;49.260;10.496;2023-09-19T13:41:55;2.15;;;1.08;;
26600;SDS011;14241;49.260;10.496;2023-09-19T13:44:20;2.07;;;0.93;;
26600;SDS011;14241;49.260;10.496;2023-09-19T13:46:45;1.73;;;0.93;;
26600;SDS011;14241;49.260;10.496;2023-09-19T13:49:11;3.20;;;1.20;;
26600;SDS011;14241;49.260;10.496;2023-09-19T13:51:36;4.55;;;1.00;;
26600;SDS011;14241;49.260;10.496;2023-09-19T13:54:02;2.17;;;0.88;;
26600;SDS011;14241;49.260;10.496;2023-09-19T13:56:27;3.17;;;0.90;;
26600;SDS011;14241;49.260;10.496;2023-09-19T13:58:57;2.85;;;1.00;;
26600;SDS011;14241;49.260;10.496;2023-09-19T14:01:22;1.77;;;0.98;;
26600;SDS011;14241;49.260;10.496;2023-09-19T14:03:47;6.03;;;1.07;;
26600;SDS011;14241;49.260;10.496;2023-09-19T14:06:15;3.63;;;1.23;;
26600;SDS011;14241;49.260;10.496;2023-09-19T14:08:40;3.47;;;1.10;;
26600;SDS011;14241;49.260;10.496;2023-09-19T14:11:06;2.00;;;1.00;;
26600;SDS011;14241;49.260;10.496;2023-09-19T14:13:31;3.10;;;1.20;;
26600;SDS011;14241;49.260;10.496;2023-09-19T14:15:56;2.00;;;1.00;;
26600;SDS011;14241;49.260;10.496;2023-09-19T14:18:22;2.00;;;1.13;;
26600;SDS011;14241;49.260;10.496;2023-09-19T14:20:47;4.23;;;1.00;;
26600;SDS011;14241;49.260;10.496;2023-09-19T14:23:12;1.23;;;1.00;;
26600;SDS011;14241;49.260;10.496;2023-09-19T14:25:37;1.73;;;0.70;;
26600;SDS011;14241;49.260;10.496;2023-09-19T14:28:04;2.47;;;1.02;;
26600;SDS011;14241;49.260;10.496;2023-09-19T14:30:29;2.45;;;0.90;;
26600;SDS011;14241;49.260;10.496;2023-09-19T14:32:54;2.67;;;1.00;;
26600;SDS011;14241;49.260;10.496;2023-09-19T14:35:21;5.70;;;1.15;;
26600;SDS011;14241;49.260;10.496;2023-09-19T14:37:48;1.92;;;1.05;;
26600;SDS011;14241;49.260;10.496;2023-09-19T14:40:13;2.05;;;1.08;;
26600;SDS011;14241;49.260;10.496;2023-09-19T14:42:43;1.15;;;0.68;;
26600;SDS011;14241;49.260;10.496;2023-09-19T14:45:10;3.55;;;0.90;;
26600;SDS011;14241;49.260;10.496;2023-09-19T14:47:36;3.78;;;1.13;;
26600;SDS011;14241;49.260;10.496;2023-09-19T14:50:02;3.83;;;1.00;;
26600;SDS011;14241;49.260;10.496;2023-09-19T14:52:31;2.30;;;0.80;;
26600;SDS011;14241;49.260;10.496;2023-09-19T14:54:56;3.00;;;0.83;;
26600;SDS011;14241;49.260;10.496;2023-09-19T14:57:21;1.90;;;0.80;;
26600;SDS011;14241;49.260;10.496;2023-09-19T14:59:49;2.60;;;1.42;;
26600;SDS011;14241;49.260;10.496;2023-09-19T15:02:14;2.60;;;0.80;;
26600;SDS011;14241;49.260;10.496;2023-09-19T15:04:41;2.78;;;1.05;;
26600;SDS011;14241;49.260;10.496;2023-09-19T15:07:09;2.33;;;0.80;;
26600;SDS011;14241;49.260;10.496;2023-09-19T15:09:34;1.80;;;1.03;;
26600;SDS011;14241;49.260;10.496;2023-09-19T15:12:00;2.22;;;1.10;;
26600;SDS011;14241;49.260;10.496;2023-09-19T15:14:26;2.90;;;0.95;;
26600;SDS011;14241;49.260;10.496;2023-09-19T15:16:51;3.23;;;1.10;;
26600;SDS011;14241;49.260;10.496;2023-09-19T15:19:17;2.30;;;0.85;;
26600;SDS011;14241;49.260;10.496;2023-09-19T15:21:42;3.30;;;0.93;;